Donnan, Iowa
Current Conditions -  °F | °C
As of 8:35 AM on Friday 28 Nov 2014 (Local Time) from KOLZ Reporting Station
Clear Clear  
Wind Chill:   Ceiling: Unl
Heat Index: 18°   Visibility: 10mi
Dew Point: 12°   Wind: 16mph
Humidity: 79%   Direction: 150°SSE
Pressure: 30.03"   Gusts: NA
Location:  42.8663°N, 91.8396°W
Report Text: KOLZ 281435Z AUTO 15014KT 10SM CLR M08/M11 A3003 RMK AO2
Loading
Personal Weather Stations






























Interactive Weather Map New forecast layout! Learn more

10-Day Weather Forecast

Advertisements
Track Severe Weather on mobile